»·PEaware :: N213DS KRNM-KONT

N213DS :: KRNM-KONT

FLIGHT INFORMATION

Flight Status: Arrived
Operator: Privately registered:
United States
More flights under this callsign
Pilot: Robert D. (13877)
Aircraft: Unknown
(DA40)
More flights by this aircraft type
Origin: KRNM Ramona
United States
Destination: KONT Ontario Intl
United States
More flights between these airports :: More routes between these airports
Route: ROBNN V208 OCN V23 DANAH V363 POXKU V8 PDZ
File this flight plan on PilotEdge
Remarks:
Altitude:
(Current/Filed)
6,000ft
Speed:
(Current/Filed)
130kts
Departed: 30-Jul-20 10:48 AM
Arrived: 30-Jul-20 11:48 AM
Distance/Time
Traveled:
70nm/1:00
Distance/Time
To Go:
Arrived

Flight Plot

Page will automatically refresh every two minutes.


Map Options




Map Legend


Flown Route
Filed Route
Departure Airport
Arrival Airport
Navaid (VOR, NDB)
Fix

Horizontal Profiles

Position Reports

Time Latitude Longitude Heading Altitude Ground
Speed
30-Jul-20 10:18 33.037196 -116.910149 205 1391ft 0kts
30-Jul-20 10:19 33.037196 -116.910149 205 1391ft 0kts
30-Jul-20 10:20 33.037196 -116.910149 205 1391ft 0kts
30-Jul-20 10:21 33.037196 -116.910149 205 1391ft 0kts
30-Jul-20 10:22 33.037196 -116.910149 205 1391ft 0kts
30-Jul-20 10:23 33.037196 -116.910149 205 1391ft 0kts
30-Jul-20 10:24 33.037196 -116.910149 205 1391ft 0kts
30-Jul-20 10:25 33.037196 -116.910149 205 1391ft 0kts
30-Jul-20 10:26 33.037196 -116.910149 205 1391ft 0kts
30-Jul-20 10:27 33.037196 -116.910149 205 1391ft 0kts
30-Jul-20 10:28 33.037196 -116.910149 205 1391ft 0kts
30-Jul-20 10:29 33.037196 -116.910149 205 1391ft 0kts
30-Jul-20 10:30 33.037196 -116.910149 205 1391ft 0kts
30-Jul-20 10:31 33.037196 -116.910149 205 1391ft 0kts
30-Jul-20 10:32 33.037196 -116.910149 205 1391ft 0kts
30-Jul-20 10:33 33.037196 -116.910149 205 1391ft 0kts
30-Jul-20 10:34 33.037196 -116.910149 205 1391ft 0kts
30-Jul-20 10:35 33.037196 -116.910149 205 1391ft 0kts
30-Jul-20 10:36 33.037196 -116.910149 205 1391ft 0kts
30-Jul-20 10:37 33.037196 -116.910149 205 1391ft 0kts
30-Jul-20 10:38 33.037196 -116.910149 205 1391ft 0kts
30-Jul-20 10:39 33.037196 -116.910149 205 1391ft 0kts
30-Jul-20 10:40 33.037067 -116.909974 107 1391ft 6kts
30-Jul-20 10:41 33.037028 -116.909751 88 1391ft 0kts
30-Jul-20 10:42 33.037318 -116.907504 46 1386ft 2kts
30-Jul-20 10:43 33.037352 -116.907469 38 1386ft 0kts
30-Jul-20 10:44 33.037352 -116.907469 37 1386ft 0kts
30-Jul-20 10:45 33.037352 -116.907469 37 1386ft 0kts
30-Jul-20 10:46 33.037352 -116.907469 37 1386ft 0kts
30-Jul-20 10:47 33.039205 -116.916116 275 1635ft 61kts
30-Jul-20 10:48 33.041551 -116.940375 279 2393ft 96kts
30-Jul-20 10:49 33.048231 -116.974133 281 3017ft 108kts
30-Jul-20 10:50 33.052844 -117.007989 279 3832ft 97kts
30-Jul-20 10:51 33.065358 -117.034532 304 4727ft 91kts
30-Jul-20 10:52 33.083010 -117.055887 310 5621ft 90kts
30-Jul-20 10:53 33.102943 -117.076102 326 6245ft 113kts
30-Jul-20 10:54 33.126091 -117.103935 284 6236ft 120kts
30-Jul-20 10:55 33.137798 -117.141604 287 6236ft 122kts
30-Jul-20 10:56 33.151629 -117.178864 288 6236ft 122kts
30-Jul-20 10:57 33.165621 -117.216160 288 6236ft 123kts
30-Jul-20 10:58 33.179468 -117.253172 289 6236ft 123kts
30-Jul-20 10:59 33.193033 -117.289447 289 6236ft 122kts
30-Jul-20 11:00 33.206765 -117.326226 290 6236ft 120kts
30-Jul-20 11:01 33.220352 -117.362668 291 6236ft 118kts
30-Jul-20 11:02 33.233506 -117.398121 291 6236ft 115kts
30-Jul-20 11:03 33.252536 -117.430107 314 6011ft 121kts
30-Jul-20 11:04 33.275759 -117.458272 313 5998ft 117kts
30-Jul-20 11:05 33.299151 -117.485141 313 5998ft 116kts
30-Jul-20 11:06 33.322478 -117.512325 313 5998ft 116kts
30-Jul-20 11:07 33.345630 -117.539368 313 5998ft 116kts
30-Jul-20 11:08 33.368866 -117.566490 313 5998ft 116kts
30-Jul-20 11:09 33.392111 -117.593654 313 5998ft 116kts
30-Jul-20 11:10 33.415211 -117.620667 313 5999ft 116kts
30-Jul-20 11:11 33.438387 -117.647812 313 5998ft 117kts
30-Jul-20 11:12 33.461892 -117.675337 312 6000ft 118kts
30-Jul-20 11:13 33.487099 -117.700224 350 6000ft 125kts
30-Jul-20 11:14 33.521838 -117.703835 344 6000ft 125kts
30-Jul-20 11:15 33.556153 -117.710415 345 6000ft 125kts
30-Jul-20 11:16 33.590730 -117.716475 346 6000ft 126kts
30-Jul-20 11:17 33.625444 -117.722303 346 6001ft 126kts
30-Jul-20 11:19 33.660067 -117.728121 346 6002ft 125kts
30-Jul-20 11:20 33.693004 -117.739142 335 6003ft 123kts
30-Jul-20 11:21 33.724783 -117.753750 333 6003ft 122kts
30-Jul-20 11:22 33.756653 -117.768736 333 6003ft 122kts
30-Jul-20 11:23 33.788936 -117.781146 359 6003ft 127kts
30-Jul-20 11:24 33.824033 -117.781427 353 6002ft 126kts
30-Jul-20 11:25 33.856306 -117.772254 66 6003ft 138kts
30-Jul-20 11:26 33.867323 -117.727903 70 6004ft 138kts
30-Jul-20 11:27 33.878769 -117.683785 70 6006ft 138kts
30-Jul-20 11:28 33.890100 -117.639715 69 5994ft 138kts
30-Jul-20 11:29 33.901652 -117.594336 70 5397ft 142kts
30-Jul-20 11:30 33.909081 -117.551142 70 5319ft 125kts
30-Jul-20 11:31 33.915694 -117.510677 93 5320ft 126kts
30-Jul-20 11:32 33.917770 -117.466866 84 5318ft 133kts
30-Jul-20 11:33 33.919594 -117.421966 85 5316ft 133kts
30-Jul-20 11:34 33.921281 -117.377314 84 5313ft 131kts
30-Jul-20 11:34 33.928540 -117.344473 25 5059ft 120kts
30-Jul-20 11:36 33.965634 -117.341644 356 4804ft 113kts
30-Jul-20 11:36 33.991790 -117.341426 356 4808ft 114kts
30-Jul-20 11:38 34.029597 -117.341296 355 4811ft 117kts
30-Jul-20 11:39 34.054783 -117.354925 272 4488ft 110kts
30-Jul-20 11:39 34.055125 -117.385420 266 3899ft 110kts
30-Jul-20 11:40 34.054900 -117.421469 272 3014ft 107kts
30-Jul-20 11:42 34.054928 -117.460346 272 2910ft 94kts
30-Jul-20 11:42 34.054957 -117.484719 274 2599ft 79kts
30-Jul-20 11:43 34.054962 -117.510341 273 2142ft 74kts
30-Jul-20 11:44 34.054977 -117.535350 272 1739ft 75kts
30-Jul-20 11:45 34.054973 -117.560847 271 1329ft 76kts
30-Jul-20 11:46 34.054993 -117.583479 270 970ft 59kts
30-Jul-20 11:47 34.054432 -117.593735 239 916ft 6kts
30-Jul-20 11:48 34.053841 -117.598670 270 914ft 24kts
30-Jul-20 11:49 34.051163 -117.603295 120 908ft 0kts
30-Jul-20 11:50 34.051163 -117.603295 121 908ft 0kts

Navigation Log

Ident Type
Flight plan parsing failed, navigation log unavailable